sensor_id;sensor_type;location;lat;lon;timestamp;temperature;humidity
61351;DHT22;47119;49.130;9.218;2023-03-14T00:00:38;11.59;84.70
61351;DHT22;47119;49.130;9.218;2023-03-14T00:03:10;11.59;84.49
61351;DHT22;47119;49.130;9.218;2023-03-14T00:05:40;11.57;84.73
61351;DHT22;47119;49.130;9.218;2023-03-14T00:08:12;11.57;84.56
61351;DHT22;47119;49.130;9.218;2023-03-14T00:10:42;11.54;84.53
61351;DHT22;47119;49.130;9.218;2023-03-14T00:13:18;11.59;84.88
61351;DHT22;47119;49.130;9.218;2023-03-14T00:18:42;11.57;84.25
61351;DHT22;47119;49.130;9.218;2023-03-14T00:21:16;11.61;84.15
61351;DHT22;47119;49.130;9.218;2023-03-14T00:23:44;11.64;83.91
61351;DHT22;47119;49.130;9.218;2023-03-14T00:26:17;11.61;84.04
61351;DHT22;47119;49.130;9.218;2023-03-14T00:28:51;11.64;84.24
61351;DHT22;47119;49.130;9.218;2023-03-14T00:31:24;11.62;84.01
61351;DHT22;47119;49.130;9.218;2023-03-14T00:34:10;11.59;85.16
61351;DHT22;47119;49.130;9.218;2023-03-14T00:37:23;11.59;83.80
61351;DHT22;47119;49.130;9.218;2023-03-14T00:40:54;11.59;84.18
61351;DHT22;47119;49.130;9.218;2023-03-14T00:44:09;11.62;84.68
61351;DHT22;47119;49.130;9.218;2023-03-14T00:47:33;11.64;84.19
61351;DHT22;47119;49.130;9.218;2023-03-14T00:50:59;11.64;83.86
61351;DHT22;47119;49.130;9.218;2023-03-14T00:54:05;11.65;83.96
61351;DHT22;47119;49.130;9.218;2023-03-14T01:00:01;11.61;83.75
61351;DHT22;47119;49.130;9.218;2023-03-14T01:07:37;11.62;83.55
61351;DHT22;47119;49.130;9.218;2023-03-14T01:11:17;11.65;83.89
61351;DHT22;47119;49.130;9.218;2023-03-14T01:14:28;11.57;84.08
61351;DHT22;47119;49.130;9.218;2023-03-14T01:31:59;11.62;83.88
61351;DHT22;47119;49.130;9.218;2023-03-14T01:34:32;11.65;83.83
61351;DHT22;47119;49.130;9.218;2023-03-14T01:37:12;11.65;83.45
61351;DHT22;47119;49.130;9.218;2023-03-14T01:40:12;11.66;83.70
61351;DHT22;47119;49.130;9.218;2023-03-14T01:43:23;11.69;83.15
61351;DHT22;47119;49.130;9.218;2023-03-14T01:46:43;11.65;83.97
61351;DHT22;47119;49.130;9.218;2023-03-14T01:49:40;11.64;83.82
61351;DHT22;47119;49.130;9.218;2023-03-14T01:53:15;11.64;83.82
61351;DHT22;47119;49.130;9.218;2023-03-14T02:15:36;11.62;83.15
61351;DHT22;47119;49.130;9.218;2023-03-14T02:23:23;11.68;83.18
61351;DHT22;47119;49.130;9.218;2023-03-14T02:28:06;11.71;82.90
61351;DHT22;47119;49.130;9.218;2023-03-14T02:36:09;11.74;82.64
61351;DHT22;47119;49.130;9.218;2023-03-14T02:38:47;11.71;82.88
61351;DHT22;47119;49.130;9.218;2023-03-14T02:41:40;11.69;83.18
61351;DHT22;47119;49.130;9.218;2023-03-14T02:44:46;11.66;82.96
61351;DHT22;47119;49.130;9.218;2023-03-14T02:48:28;11.66;83.34
61351;DHT22;47119;49.130;9.218;2023-03-14T02:51:05;11.66;82.82
61351;DHT22;47119;49.130;9.218;2023-03-14T02:54:13;11.65;82.87
61351;DHT22;47119;49.130;9.218;2023-03-14T02:57:21;11.66;82.47
61351;DHT22;47119;49.130;9.218;2023-03-14T03:00:07;11.64;82.76
61351;DHT22;47119;49.130;9.218;2023-03-14T03:02:44;11.66;82.49
61351;DHT22;47119;49.130;9.218;2023-03-14T03:13:01;11.64;82.12
61351;DHT22;47119;49.130;9.218;2023-03-14T03:16:09;11.66;81.90
61351;DHT22;47119;49.130;9.218;2023-03-14T03:18:39;11.65;81.73
61351;DHT22;47119;49.130;9.218;2023-03-14T03:21:06;11.65;81.82
61351;DHT22;47119;49.130;9.218;2023-03-14T03:26:50;11.62;81.55
61351;DHT22;47119;49.130;9.218;2023-03-14T03:29:36;11.59;81.45
61351;DHT22;47119;49.130;9.218;2023-03-14T03:32:15;11.62;81.39
61351;DHT22;47119;49.130;9.218;2023-03-14T03:35:02;11.64;81.48
61351;DHT22;47119;49.130;9.218;2023-03-14T03:37:51;11.61;81.28
61351;DHT22;47119;49.130;9.218;2023-03-14T03:40:31;11.58;81.18
61351;DHT22;47119;49.130;9.218;2023-03-14T03:47:06;11.64;81.14
61351;DHT22;47119;49.130;9.218;2023-03-14T03:51:48;11.61;81.14
61351;DHT22;47119;49.130;9.218;2023-03-14T03:54:39;11.61;81.12
61351;DHT22;47119;49.130;9.218;2023-03-14T03:57:09;11.61;81.00
61351;DHT22;47119;49.130;9.218;2023-03-14T03:59:50;11.59;80.92
61351;DHT22;47119;49.130;9.218;2023-03-14T04:02:17;11.58;80.81
61351;DHT22;47119;49.130;9.218;2023-03-14T04:05:03;11.59;81.06
61351;DHT22;47119;49.130;9.218;2023-03-14T04:08:21;11.55;80.48
61351;DHT22;47119;49.130;9.218;2023-03-14T04:11:41;11.58;80.70
61351;DHT22;47119;49.130;9.218;2023-03-14T04:15:43;11.58;80.50
61351;DHT22;47119;49.130;9.218;2023-03-14T04:19:03;11.52;80.34
61351;DHT22;47119;49.130;9.218;2023-03-14T04:21:50;11.54;80.13
61351;DHT22;47119;49.130;9.218;2023-03-14T04:24:40;11.55;80.20
61351;DHT22;47119;49.130;9.218;2023-03-14T04:27:24;11.52;80.17
61351;DHT22;47119;49.130;9.218;2023-03-14T04:30:37;11.52;79.97
61351;DHT22;47119;49.130;9.218;2023-03-14T04:33:26;11.50;79.85
61351;DHT22;47119;49.130;9.218;2023-03-14T04:36:01;11.46;79.90
61351;DHT22;47119;49.130;9.218;2023-03-14T04:38:39;11.50;79.57
61351;DHT22;47119;49.130;9.218;2023-03-14T04:41:34;11.46;79.85
61351;DHT22;47119;49.130;9.218;2023-03-14T04:53:08;11.50;79.46
61351;DHT22;47119;49.130;9.218;2023-03-14T04:56:00;11.50;79.17
61351;DHT22;47119;49.130;9.218;2023-03-14T04:58:39;11.46;79.14
61351;DHT22;47119;49.130;9.218;2023-03-14T05:01:28;11.48;78.92
61351;DHT22;47119;49.130;9.218;2023-03-14T05:04:23;11.46;78.69
61351;DHT22;47119;49.130;9.218;2023-03-14T05:07:21;11.46;78.70
61351;DHT22;47119;49.130;9.218;2023-03-14T05:10:15;11.46;78.77
61351;DHT22;47119;49.130;9.218;2023-03-14T05:13:18;11.41;78.56
61351;DHT22;47119;49.130;9.218;2023-03-14T05:17:00;11.44;78.51
61351;DHT22;47119;49.130;9.218;2023-03-14T05:20:10;11.42;78.33
61351;DHT22;47119;49.130;9.218;2023-03-14T05:23:11;11.42;78.26
61351;DHT22;47119;49.130;9.218;2023-03-14T05:26:29;11.44;78.04
61351;DHT22;47119;49.130;9.218;2023-03-14T05:29:45;11.42;78.04
61351;DHT22;47119;49.130;9.218;2023-03-14T05:33:05;11.42;77.96
61351;DHT22;47119;49.130;9.218;2023-03-14T05:35:56;11.41;78.15
61351;DHT22;47119;49.130;9.218;2023-03-14T05:46:51;11.42;77.69
61351;DHT22;47119;49.130;9.218;2023-03-14T05:50:18;11.41;78.26
61351;DHT22;47119;49.130;9.218;2023-03-14T05:54:37;11.39;77.59
61351;DHT22;47119;49.130;9.218;2023-03-14T05:58:33;11.44;78.08
61351;DHT22;47119;49.130;9.218;2023-03-14T06:01:47;11.45;77.81
61351;DHT22;47119;49.130;9.218;2023-03-14T06:04:21;11.46;77.53
61351;DHT22;47119;49.130;9.218;2023-03-14T06:07:06;11.42;77.94
61351;DHT22;47119;49.130;9.218;2023-03-14T06:09:40;11.45;77.75
61351;DHT22;47119;49.130;9.218;2023-03-14T06:12:08;11.45;77.54
61351;DHT22;47119;49.130;9.218;2023-03-14T06:14:40;11.42;77.65
61351;DHT22;47119;49.130;9.218;2023-03-14T06:17:22;11.45;77.69
61351;DHT22;47119;49.130;9.218;2023-03-14T06:20:00;11.42;77.53
61351;DHT22;47119;49.130;9.218;2023-03-14T06:22:56;11.46;77.65
61351;DHT22;47119;49.130;9.218;2023-03-14T06:25:47;11.44;77.86
61351;DHT22;47119;49.130;9.218;2023-03-14T06:28:38;11.41;77.41
61351;DHT22;47119;49.130;9.218;2023-03-14T06:31:33;11.44;77.49
61351;DHT22;47119;49.130;9.218;2023-03-14T06:34:36;11.44;77.20
61351;DHT22;47119;49.130;9.218;2023-03-14T06:42:09;11.48;77.38
61351;DHT22;47119;49.130;9.218;2023-03-14T06:47:00;11.51;77.36
61351;DHT22;47119;49.130;9.218;2023-03-14T06:50:45;11.52;77.18
61351;DHT22;47119;49.130;9.218;2023-03-14T06:53:48;11.55;77.27
61351;DHT22;47119;49.130;9.218;2023-03-14T06:56:57;11.52;77.51
61351;DHT22;47119;49.130;9.218;2023-03-14T07:00:08;11.58;76.94
61351;DHT22;47119;49.130;9.218;2023-03-14T07:02:49;11.55;77.44
61351;DHT22;47119;49.130;9.218;2023-03-14T07:05:34;11.61;76.89
61351;DHT22;47119;49.130;9.218;2023-03-14T07:08:11;11.59;77.08
61351;DHT22;47119;49.130;9.218;2023-03-14T07:36:20;11.64;76.91
61351;DHT22;47119;49.130;9.218;2023-03-14T07:39:01;11.65;77.12
61351;DHT22;47119;49.130;9.218;2023-03-14T07:41:36;11.66;76.65
61351;DHT22;47119;49.130;9.218;2023-03-14T07:44:24;11.72;76.68
61351;DHT22;47119;49.130;9.218;2023-03-14T07:47:07;11.69;77.00
61351;DHT22;47119;49.130;9.218;2023-03-14T07:49:42;11.68;76.99
61351;DHT22;47119;49.130;9.218;2023-03-14T07:52:29;11.71;76.50
61351;DHT22;47119;49.130;9.218;2023-03-14T07:55:25;11.72;76.94
61351;DHT22;47119;49.130;9.218;2023-03-14T07:57:58;11.72;76.74
61351;DHT22;47119;49.130;9.218;2023-03-14T08:00:58;11.75;76.50
61351;DHT22;47119;49.130;9.218;2023-03-14T08:03:52;11.78;76.24
61351;DHT22;47119;49.130;9.218;2023-03-14T08:06:48;11.82;75.79
61351;DHT22;47119;49.130;9.218;2023-03-14T08:10:07;11.82;76.45
61351;DHT22;47119;49.130;9.218;2023-03-14T08:13:17;11.82;76.29
61351;DHT22;47119;49.130;9.218;2023-03-14T08:16:11;11.87;75.92
61351;DHT22;47119;49.130;9.218;2023-03-14T08:19:51;11.87;76.32
61351;DHT22;47119;49.130;9.218;2023-03-14T08:23:02;11.87;76.34
61351;DHT22;47119;49.130;9.218;2023-03-14T08:25:44;11.89;76.34
61351;DHT22;47119;49.130;9.218;2023-03-14T08:28:54;11.90;75.92
61351;DHT22;47119;49.130;9.218;2023-03-14T08:31:35;11.90;76.07
61351;DHT22;47119;49.130;9.218;2023-03-14T08:34:40;11.93;75.95
61351;DHT22;47119;49.130;9.218;2023-03-14T08:37:11;11.95;75.79
61351;DHT22;47119;49.130;9.218;2023-03-14T08:39:42;11.95;76.19
61351;DHT22;47119;49.130;9.218;2023-03-14T08:42:26;11.95;75.85
61351;DHT22;47119;49.130;9.218;2023-03-14T08:48:59;11.96;75.51
61351;DHT22;47119;49.130;9.218;2023-03-14T08:51:59;11.96;75.76
61351;DHT22;47119;49.130;9.218;2023-03-14T08:54:56;11.97;75.96
61351;DHT22;47119;49.130;9.218;2023-03-14T08:58:21;11.96;76.53
61351;DHT22;47119;49.130;9.218;2023-03-14T09:00:51;11.93;76.73
61351;DHT22;47119;49.130;9.218;2023-03-14T09:03:19;11.96;75.98
61351;DHT22;47119;49.130;9.218;2023-03-14T09:05:48;11.97;75.88
61351;DHT22;47119;49.130;9.218;2023-03-14T09:08:20;11.96;76.20
61351;DHT22;47119;49.130;9.218;2023-03-14T09:11:11;11.99;75.76
61351;DHT22;47119;49.130;9.218;2023-03-14T09:13:49;12.00;76.06
61351;DHT22;47119;49.130;9.218;2023-03-14T09:16:54;12.00;76.84
61351;DHT22;47119;49.130;9.218;2023-03-14T09:20:08;12.00;76.88
61351;DHT22;47119;49.130;9.218;2023-03-14T09:23:12;12.00;76.65
61351;DHT22;47119;49.130;9.218;2023-03-14T10:26:50;12.02;78.66
61351;DHT22;47119;49.130;9.218;2023-03-14T10:49:26;12.06;77.21
61351;DHT22;47119;49.130;9.218;2023-03-14T11:21:55;12.10;77.20
61351;DHT22;47119;49.130;9.218;2023-03-14T11:51:52;12.07;77.46
61351;DHT22;47119;49.130;9.218;2023-03-14T13:57:47;11.87;71.43
61351;DHT22;47119;49.130;9.218;2023-03-14T14:00:21;11.92;72.07
61351;DHT22;47119;49.130;9.218;2023-03-14T14:02:53;11.90;72.63
61351;DHT22;47119;49.130;9.218;2023-03-14T14:05:26;11.90;72.39
61351;DHT22;47119;49.130;9.218;2023-03-14T14:07:55;11.82;70.91
61351;DHT22;47119;49.130;9.218;2023-03-14T14:10:26;11.82;68.80
61351;DHT22;47119;49.130;9.218;2023-03-14T14:12:59;11.79;69.91
61351;DHT22;47119;49.130;9.218;2023-03-14T14:15:34;11.78;68.27
61351;DHT22;47119;49.130;9.218;2023-03-14T14:18:11;11.71;68.98
61351;DHT22;47119;49.130;9.218;2023-03-14T19:46:50;11.39;66.15
61351;DHT22;47119;49.130;9.218;2023-03-14T19:49:45;11.35;66.00
61351;DHT22;47119;49.130;9.218;2023-03-14T19:52:59;11.38;65.68
61351;DHT22;47119;49.130;9.218;2023-03-14T19:55:27;11.42;66.08
61351;DHT22;47119;49.130;9.218;2023-03-14T19:57:54;11.39;65.96
61351;DHT22;47119;49.130;9.218;2023-03-14T20:00:22;11.41;66.16
61351;DHT22;47119;49.130;9.218;2023-03-14T20:03:03;11.32;66.46
61351;DHT22;47119;49.130;9.218;2023-03-14T20:05:30;11.34;66.89
61351;DHT22;47119;49.130;9.218;2023-03-14T20:14:55;10.94;67.65
61351;DHT22;47119;49.130;9.218;2023-03-14T20:17:33;11.06;67.84
61351;DHT22;47119;49.130;9.218;2023-03-14T20:20:08;11.15;68.00
61351;DHT22;47119;49.130;9.218;2023-03-14T20:22:53;11.04;67.94
61351;DHT22;47119;49.130;9.218;2023-03-14T20:25:35;11.10;67.84
61351;DHT22;47119;49.130;9.218;2023-03-14T20:28:12;10.99;67.88
61351;DHT22;47119;49.130;9.218;2023-03-14T20:36:31;10.76;68.39
61351;DHT22;47119;49.130;9.218;2023-03-14T20:39:47;10.73;68.78
61351;DHT22;47119;49.130;9.218;2023-03-14T20:43:05;10.73;68.50
61351;DHT22;47119;49.130;9.218;2023-03-14T20:46:00;10.69;68.49
61351;DHT22;47119;49.130;9.218;2023-03-14T20:48:54;10.62;68.35
61351;DHT22;47119;49.130;9.218;2023-03-14T20:51:51;10.63;68.60
61351;DHT22;47119;49.130;9.218;2023-03-14T20:55:39;10.63;68.42
61351;DHT22;47119;49.130;9.218;2023-03-14T20:58:53;10.65;68.68
61351;DHT22;47119;49.130;9.218;2023-03-14T21:01:45;10.65;68.49
